Terminal Aerodrome Forecast
Issued by NWS

Home | Current Version | Previous Version | Text Only | Print | Product List | Glossary On
Versions: 1 2 3 4 5 6 7 8 9 10 11 12 13 14
000
FTUS41 KPBZ 281700 AAA
TAFMGW
TAF AMD
KMGW 281722Z 2817/2912 33008KT 6SM -DZ OVC012
      TEMPO 2817/2821 4SM -DZ BKN009
     FM282100 30004KT P6SM OVC020
     FM290600 32004KT 6SM BR BKN025=

USA.gov is the U.S. government's official web portal to all federal, state and local government web resources and services.